FDX1122 KLAX-KLAS
Flight info
| Callsign | FDX1122 |
|---|---|
| Flight time | 0h 47m |
| Altitude | 29000 |
| Route | ORCKA5 MISEN RNDRZ4 |
| Aircraft | MD11/H-SDE1E2E3FGHIJ2J3J4J5M1RWXY/LB1D1 |
Departure
| Time | 2026-05-04 03:44 |
|---|---|
| Airport | Los Angeles International Airport (KLAX) |
Arrival
| Time | 2026-05-04 04:32 |
|---|---|
| Airport | Harry Reid International Airport (KLAS) |
| Time | Latitude | Longitude | Altitude | Speed | Heading |
|---|---|---|---|---|---|
| 2026-05-04 03:10 | 33.93465 | -118.38213 | 133 ft | 0 kts | 225° |
| 2026-05-04 03:31 | 33.93468 | -118.38210 | 133 ft | 2 kts | 227° |
| 2026-05-04 03:31 | 33.93476 | -118.38197 | 133 ft | 3 kts | 257° |
| 2026-05-04 03:31 | 33.93480 | -118.38181 | 129 ft | 1 kts | 240° |
| 2026-05-04 03:32 | 33.93487 | -118.38167 | 132 ft | 3 kts | 251° |
| 2026-05-04 03:32 | 33.93491 | -118.38147 | 133 ft | 3 kts | 281° |
| 2026-05-04 03:32 | 33.93490 | -118.38134 | 133 ft | 3 kts | 323° |
| 2026-05-04 03:32 | 33.93477 | -118.38127 | 126 ft | 3 kts | 355° |
| 2026-05-04 03:33 | 33.93457 | -118.38126 | 131 ft | 3 kts | 2° |
| 2026-05-04 03:33 | 33.93437 | -118.38127 | 133 ft | 3 kts | 1° |
| 2026-05-04 03:33 | 33.93427 | -118.38127 | 133 ft | 1 kts | 0° |
| 2026-05-04 03:33 | 33.93426 | -118.38127 | 133 ft | 0 kts | 360° |
| 2026-05-04 03:36 | 33.93442 | -118.38127 | 133 ft | 5 kts | 360° |
| 2026-05-04 03:36 | 33.93494 | -118.38127 | 129 ft | 10 kts | 360° |
| 2026-05-04 03:36 | 33.93531 | -118.38127 | 131 ft | 0 kts | 358° |
| 2026-05-04 03:40 | 33.93533 | -118.38127 | 133 ft | 0 kts | 358° |
| 2026-05-04 03:40 | 33.93558 | -118.38129 | 131 ft | 8 kts | 351° |
| 2026-05-04 03:40 | 33.93598 | -118.38152 | 129 ft | 9 kts | 317° |
| 2026-05-04 03:41 | 33.93617 | -118.38229 | 129 ft | 6 kts | 278° |
| 2026-05-04 03:41 | 33.93629 | -118.38254 | 127 ft | 0 kts | 308° |
| 2026-05-04 03:43 | 33.93632 | -118.38258 | 128 ft | 4 kts | 313° |
| 2026-05-04 03:43 | 33.93677 | -118.38284 | 129 ft | 12 kts | 334° |
| 2026-05-04 03:43 | 33.93723 | -118.38377 | 128 ft | 15 kts | 280° |
| 2026-05-04 03:44 | 33.93703 | -118.38617 | 133 ft | 61 kts | 263° |
| 2026-05-04 03:44 | 33.93615 | -118.39474 | 135 ft | 142 kts | 263° |
| 2026-05-04 03:44 | 33.93462 | -118.40862 | 400 ft | 182 kts | 262° |
| 2026-05-04 03:44 | 33.93272 | -118.42472 | 1184 ft | 205 kts | 263° |
| 2026-05-04 03:45 | 33.93080 | -118.44271 | 1926 ft | 232 kts | 263° |
| 2026-05-04 03:45 | 33.92870 | -118.46103 | 2762 ft | 214 kts | 262° |
| 2026-05-04 03:45 | 33.92551 | -118.47921 | 3629 ft | 229 kts | 252° |
| 2026-05-04 03:45 | 33.91939 | -118.49727 | 4238 ft | 229 kts | 246° |
| 2026-05-04 03:46 | 33.91257 | -118.51476 | 4788 ft | 235 kts | 245° |
| 2026-05-04 03:46 | 33.90546 | -118.53315 | 5232 ft | 245 kts | 246° |
| 2026-05-04 03:46 | 33.89839 | -118.55193 | 5689 ft | 240 kts | 246° |
| 2026-05-04 03:46 | 33.88862 | -118.56842 | 5970 ft | 245 kts | 223° |
| 2026-05-04 03:47 | 33.87342 | -118.57705 | 6287 ft | 244 kts | 187° |
| 2026-05-04 03:47 | 33.85671 | -118.57433 | 7365 ft | 249 kts | 160° |
| 2026-05-04 03:47 | 33.84261 | -118.56203 | 8300 ft | 257 kts | 132° |
| 2026-05-04 03:47 | 33.83462 | -118.54260 | 9195 ft | 266 kts | 104° |
| 2026-05-04 03:48 | 33.83483 | -118.52013 | 10040 ft | 275 kts | 76° |
| 2026-05-04 03:48 | 33.84316 | -118.49922 | 10789 ft | 282 kts | 56° |
| 2026-05-04 03:48 | 33.85498 | -118.48010 | 11545 ft | 287 kts | 52° |
| 2026-05-04 03:48 | 33.86740 | -118.46100 | 12330 ft | 292 kts | 52° |
| 2026-05-04 03:49 | 33.88005 | -118.44157 | 13127 ft | 297 kts | 53° |
| 2026-05-04 03:49 | 33.89269 | -118.42152 | 13796 ft | 306 kts | 49° |
| 2026-05-04 03:49 | 33.90836 | -118.40425 | 14132 ft | 306 kts | 37° |
| 2026-05-04 03:49 | 33.92479 | -118.38950 | 14466 ft | 282 kts | 34° |
| 2026-05-04 03:50 | 33.94067 | -118.37566 | 14813 ft | 282 kts | 34° |
| 2026-05-04 03:50 | 33.95630 | -118.36135 | 15411 ft | 285 kts | 37° |
| 2026-05-04 03:50 | 33.97129 | -118.34529 | 15964 ft | 292 kts | 42° |
| 2026-05-04 03:50 | 33.98549 | -118.32746 | 16512 ft | 298 kts | 46° |
| 2026-05-04 03:51 | 33.99909 | -118.30824 | 17060 ft | 305 kts | 49° |
| 2026-05-04 03:51 | 34.01231 | -118.28800 | 17596 ft | 311 kts | 50° |
| 2026-05-04 03:51 | 34.02539 | -118.26690 | 18124 ft | 317 kts | 51° |
| 2026-05-04 03:51 | 34.03820 | -118.24548 | 18664 ft | 319 kts | 52° |
| 2026-05-04 03:52 | 34.05101 | -118.22359 | 19203 ft | 322 kts | 53° |
| 2026-05-04 03:52 | 34.06387 | -118.20130 | 19697 ft | 325 kts | 53° |
| 2026-05-04 03:52 | 34.07667 | -118.17892 | 20175 ft | 328 kts | 53° |
| 2026-05-04 03:52 | 34.08970 | -118.15606 | 20648 ft | 331 kts | 53° |
| 2026-05-04 03:53 | 34.10277 | -118.13302 | 21127 ft | 335 kts | 53° |
| 2026-05-04 03:53 | 34.11596 | -118.10972 | 21575 ft | 337 kts | 53° |
| 2026-05-04 03:53 | 34.12926 | -118.08616 | 22036 ft | 341 kts | 53° |
| 2026-05-04 03:53 | 34.14263 | -118.06244 | 22490 ft | 343 kts | 53° |
| 2026-05-04 03:54 | 34.15612 | -118.03848 | 22967 ft | 346 kts | 53° |
| 2026-05-04 03:54 | 34.16970 | -118.01436 | 23436 ft | 348 kts | 53° |
| 2026-05-04 03:54 | 34.18343 | -117.98997 | 23834 ft | 352 kts | 53° |
| 2026-05-04 03:54 | 34.19723 | -117.96545 | 24195 ft | 354 kts | 53° |
| 2026-05-04 03:55 | 34.21115 | -117.94072 | 24548 ft | 357 kts | 53° |
| 2026-05-04 03:55 | 34.22520 | -117.91572 | 24884 ft | 362 kts | 53° |
| 2026-05-04 03:55 | 34.23937 | -117.89050 | 25238 ft | 365 kts | 53° |
| 2026-05-04 03:55 | 34.25368 | -117.86501 | 25633 ft | 368 kts | 53° |
| 2026-05-04 03:56 | 34.26810 | -117.83930 | 26001 ft | 370 kts | 52° |
| 2026-05-04 03:56 | 34.28260 | -117.81343 | 26368 ft | 373 kts | 52° |
| 2026-05-04 03:56 | 34.29716 | -117.78746 | 26755 ft | 376 kts | 52° |
| 2026-05-04 03:56 | 34.31160 | -117.76163 | 27090 ft | 380 kts | 52° |
| 2026-05-04 03:57 | 34.32652 | -117.73494 | 27358 ft | 390 kts | 52° |
| 2026-05-04 03:57 | 34.34203 | -117.70730 | 27479 ft | 404 kts | 52° |
| 2026-05-04 03:57 | 34.35834 | -117.67896 | 27613 ft | 416 kts | 51° |
| 2026-05-04 03:57 | 34.37537 | -117.65015 | 27740 ft | 426 kts | 50° |
| 2026-05-04 03:58 | 34.41099 | -117.59061 | 27980 ft | 447 kts | 50° |
| 2026-05-04 03:58 | 34.42936 | -117.55993 | 28274 ft | 452 kts | 50° |
| 2026-05-04 03:58 | 34.44786 | -117.52895 | 28660 ft | 455 kts | 51° |
| 2026-05-04 03:59 | 34.46623 | -117.49809 | 28897 ft | 443 kts | 51° |
| 2026-05-04 03:59 | 34.48423 | -117.46780 | 28934 ft | 447 kts | 51° |
| 2026-05-04 03:59 | 34.50268 | -117.43683 | 28975 ft | 460 kts | 51° |
| 2026-05-04 03:59 | 34.52170 | -117.40493 | 28986 ft | 472 kts | 51° |
| 2026-05-04 04:00 | 34.54115 | -117.37225 | 28982 ft | 484 kts | 51° |
| 2026-05-04 04:00 | 34.56107 | -117.33872 | 28984 ft | 496 kts | 51° |
| 2026-05-04 04:00 | 34.58154 | -117.30422 | 28984 ft | 509 kts | 51° |
| 2026-05-04 04:00 | 34.60249 | -117.26886 | 28981 ft | 523 kts | 51° |
| 2026-05-04 04:01 | 34.62396 | -117.23258 | 28966 ft | 536 kts | 52° |
| 2026-05-04 04:01 | 34.64602 | -117.19527 | 28948 ft | 551 kts | 52° |
| 2026-05-04 04:01 | 34.66863 | -117.15697 | 28840 ft | 564 kts | 52° |
| 2026-05-04 04:01 | 34.69167 | -117.11788 | 28848 ft | 571 kts | 52° |
| 2026-05-04 04:02 | 34.73782 | -117.03937 | 28847 ft | 571 kts | 52° |
| 2026-05-04 04:02 | 34.78397 | -116.96077 | 28853 ft | 571 kts | 52° |
| 2026-05-04 04:03 | 34.83007 | -116.88210 | 28909 ft | 570 kts | 52° |
| 2026-05-04 04:03 | 34.87576 | -116.80353 | 28547 ft | 563 kts | 53° |
| 2026-05-04 04:04 | 34.89843 | -116.76450 | 26916 ft | 566 kts | 53° |
| 2026-05-04 04:04 | 34.92108 | -116.72534 | 25844 ft | 562 kts | 53° |
| 2026-05-04 04:04 | 34.94289 | -116.68700 | 25305 ft | 550 kts | 54° |
| 2026-05-04 04:04 | 34.96435 | -116.64889 | 24934 ft | 546 kts | 54° |
| 2026-05-04 04:05 | 34.98572 | -116.61081 | 24534 ft | 541 kts | 54° |
| 2026-05-04 04:05 | 35.00693 | -116.57297 | 24181 ft | 539 kts | 54° |
| 2026-05-04 04:05 | 35.02802 | -116.53534 | 23925 ft | 536 kts | 54° |
| 2026-05-04 04:05 | 35.04905 | -116.49781 | 23835 ft | 535 kts | 54° |
| 2026-05-04 04:06 | 35.07006 | -116.46029 | 23801 ft | 535 kts | 54° |
| 2026-05-04 04:06 | 35.09122 | -116.42295 | 23784 ft | 535 kts | 52° |
| 2026-05-04 04:06 | 35.11414 | -116.38718 | 23123 ft | 531 kts | 48° |
| 2026-05-04 04:06 | 35.13859 | -116.35386 | 22347 ft | 523 kts | 44° |
| 2026-05-04 04:07 | 35.16353 | -116.32203 | 21592 ft | 514 kts | 43° |
| 2026-05-04 04:07 | 35.18829 | -116.29101 | 20839 ft | 505 kts | 44° |
| 2026-05-04 04:07 | 35.21247 | -116.26058 | 20154 ft | 495 kts | 45° |
| 2026-05-04 04:07 | 35.23553 | -116.23063 | 19773 ft | 489 kts | 46° |
| 2026-05-04 04:08 | 35.25832 | -116.20010 | 19420 ft | 485 kts | 46° |
| 2026-05-04 04:08 | 35.28075 | -116.16950 | 19074 ft | 479 kts | 47° |
| 2026-05-04 04:08 | 35.30277 | -116.13924 | 19049 ft | 476 kts | 47° |
| 2026-05-04 04:08 | 35.32479 | -116.10888 | 19060 ft | 476 kts | 47° |
| 2026-05-04 04:09 | 35.34680 | -116.07856 | 19052 ft | 476 kts | 47° |
| 2026-05-04 04:09 | 35.36882 | -116.04823 | 19061 ft | 476 kts | 47° |
| 2026-05-04 04:09 | 35.39079 | -116.01798 | 18905 ft | 476 kts | 47° |
| 2026-05-04 04:09 | 35.41265 | -115.98790 | 18550 ft | 465 kts | 47° |
| 2026-05-04 04:10 | 35.43377 | -115.95879 | 18184 ft | 449 kts | 47° |
| 2026-05-04 04:10 | 35.45420 | -115.93066 | 17752 ft | 433 kts | 48° |
| 2026-05-04 04:10 | 35.47356 | -115.90397 | 17323 ft | 403 kts | 49° |
| 2026-05-04 04:10 | 35.49159 | -115.87912 | 16930 ft | 376 kts | 49° |
| 2026-05-04 04:11 | 35.50831 | -115.85606 | 16507 ft | 358 kts | 49° |
| 2026-05-04 04:11 | 35.52474 | -115.83337 | 16101 ft | 352 kts | 49° |
| 2026-05-04 04:11 | 35.54090 | -115.81103 | 15721 ft | 347 kts | 50° |
| 2026-05-04 04:11 | 35.55686 | -115.78889 | 15312 ft | 344 kts | 50° |
| 2026-05-04 04:12 | 35.57261 | -115.76700 | 14836 ft | 340 kts | 50° |
| 2026-05-04 04:12 | 35.58819 | -115.74542 | 14395 ft | 335 kts | 50° |
| 2026-05-04 04:12 | 35.60374 | -115.72417 | 14034 ft | 333 kts | 50° |
| 2026-05-04 04:12 | 35.61921 | -115.70315 | 13682 ft | 330 kts | 50° |
| 2026-05-04 04:13 | 35.63456 | -115.68234 | 13293 ft | 327 kts | 51° |
| 2026-05-04 04:13 | 35.64974 | -115.66177 | 13106 ft | 322 kts | 51° |
| 2026-05-04 04:13 | 35.66488 | -115.64122 | 13086 ft | 325 kts | 51° |
| 2026-05-04 04:13 | 35.68000 | -115.62070 | 13094 ft | 323 kts | 51° |
| 2026-05-04 04:14 | 35.69504 | -115.60026 | 13086 ft | 322 kts | 51° |
| 2026-05-04 04:14 | 35.71008 | -115.57980 | 13089 ft | 322 kts | 51° |
| 2026-05-04 04:14 | 35.72594 | -115.56024 | 13084 ft | 325 kts | 41° |
| 2026-05-04 04:14 | 35.74454 | -115.54431 | 13089 ft | 326 kts | 33° |
| 2026-05-04 04:15 | 35.76409 | -115.53011 | 13085 ft | 327 kts | 31° |
| 2026-05-04 04:15 | 35.78393 | -115.51635 | 13087 ft | 327 kts | 31° |
| 2026-05-04 04:15 | 35.80354 | -115.50282 | 13089 ft | 327 kts | 31° |
| 2026-05-04 04:15 | 35.82312 | -115.48925 | 13079 ft | 327 kts | 31° |
| 2026-05-04 04:16 | 35.84299 | -115.47541 | 13082 ft | 328 kts | 31° |
| 2026-05-04 04:16 | 35.86281 | -115.46154 | 13076 ft | 328 kts | 31° |
| 2026-05-04 04:16 | 35.88268 | -115.44758 | 13081 ft | 328 kts | 32° |
| 2026-05-04 04:16 | 35.90251 | -115.43363 | 13079 ft | 328 kts | 32° |
| 2026-05-04 04:17 | 35.92234 | -115.41972 | 13069 ft | 327 kts | 32° |
| 2026-05-04 04:17 | 35.94230 | -115.40573 | 12633 ft | 330 kts | 32° |
| 2026-05-04 04:17 | 35.96210 | -115.39185 | 12196 ft | 322 kts | 31° |
| 2026-05-04 04:17 | 35.98124 | -115.37843 | 11812 ft | 313 kts | 31° |
| 2026-05-04 04:18 | 35.99930 | -115.36391 | 11433 ft | 306 kts | 43° |
| 2026-05-04 04:18 | 36.01162 | -115.34342 | 11117 ft | 291 kts | 75° |
| 2026-05-04 04:18 | 36.01479 | -115.32006 | 11065 ft | 265 kts | 94° |
| 2026-05-04 04:18 | 36.01411 | -115.29796 | 11051 ft | 252 kts | 99° |
| 2026-05-04 04:19 | 36.01275 | -115.27643 | 11057 ft | 250 kts | 99° |
| 2026-05-04 04:19 | 36.01134 | -115.25503 | 11067 ft | 248 kts | 99° |
| 2026-05-04 04:19 | 36.00999 | -115.23385 | 10731 ft | 247 kts | 99° |
| 2026-05-04 04:19 | 36.00869 | -115.21274 | 10393 ft | 246 kts | 99° |
| 2026-05-04 04:20 | 36.00741 | -115.19160 | 10045 ft | 247 kts | 99° |
| 2026-05-04 04:20 | 36.00616 | -115.17045 | 9692 ft | 247 kts | 99° |
| 2026-05-04 04:20 | 36.00493 | -115.14950 | 9312 ft | 248 kts | 99° |
| 2026-05-04 04:20 | 36.00371 | -115.12843 | 9096 ft | 243 kts | 99° |
| 2026-05-04 04:21 | 36.00249 | -115.10743 | 9094 ft | 246 kts | 98° |
| 2026-05-04 04:21 | 36.00125 | -115.08646 | 9033 ft | 244 kts | 98° |
| 2026-05-04 04:21 | 36.00008 | -115.06539 | 8627 ft | 247 kts | 98° |
| 2026-05-04 04:21 | 35.99962 | -115.04419 | 8301 ft | 247 kts | 96° |
| 2026-05-04 04:22 | 35.99942 | -115.02298 | 7960 ft | 247 kts | 94° |
| 2026-05-04 04:22 | 35.99943 | -115.00178 | 7574 ft | 246 kts | 96° |
| 2026-05-04 04:22 | 35.99946 | -114.98108 | 7207 ft | 239 kts | 96° |
| 2026-05-04 04:22 | 35.99952 | -114.96117 | 7058 ft | 225 kts | 96° |
| 2026-05-04 04:23 | 35.99956 | -114.94186 | 7047 ft | 225 kts | 96° |
| 2026-05-04 04:23 | 35.99957 | -114.92250 | 7048 ft | 226 kts | 96° |
| 2026-05-04 04:23 | 35.99957 | -114.90312 | 7049 ft | 226 kts | 97° |
| 2026-05-04 04:23 | 35.99959 | -114.88380 | 7048 ft | 224 kts | 97° |
| 2026-05-04 04:24 | 35.99961 | -114.86469 | 7003 ft | 220 kts | 96° |
| 2026-05-04 04:24 | 35.99963 | -114.84559 | 6543 ft | 224 kts | 96° |
| 2026-05-04 04:24 | 35.99966 | -114.82647 | 6184 ft | 221 kts | 96° |
| 2026-05-04 04:24 | 35.99971 | -114.81393 | 5925 ft | 220 kts | 94° |
| 2026-05-04 04:25 | 36.00391 | -114.79560 | 5519 ft | 227 kts | 61° |
| 2026-05-04 04:25 | 36.02029 | -114.78053 | 5117 ft | 225 kts | 13° |
| 2026-05-04 04:25 | 36.03533 | -114.78121 | 5015 ft | 215 kts | 333° |
| 2026-05-04 04:25 | 36.04384 | -114.78738 | 5061 ft | 208 kts | 313° |
| 2026-05-04 04:26 | 36.05183 | -114.80129 | 5026 ft | 192 kts | 278° |
| 2026-05-04 04:26 | 36.05437 | -114.81730 | 5057 ft | 190 kts | 271° |
| 2026-05-04 04:26 | 36.05664 | -114.83337 | 5055 ft | 189 kts | 273° |
| 2026-05-04 04:26 | 36.05933 | -114.84948 | 5025 ft | 191 kts | 275° |
| 2026-05-04 04:27 | 36.06236 | -114.86551 | 5034 ft | 192 kts | 276° |
| 2026-05-04 04:27 | 36.06564 | -114.88143 | 5035 ft | 192 kts | 276° |
| 2026-05-04 04:27 | 36.06913 | -114.89737 | 5041 ft | 193 kts | 277° |
| 2026-05-04 04:27 | 36.07270 | -114.91338 | 5034 ft | 192 kts | 273° |
| 2026-05-04 04:28 | 36.07376 | -114.92951 | 5015 ft | 189 kts | 262° |
| 2026-05-04 04:28 | 36.07365 | -114.94581 | 4806 ft | 189 kts | 262° |
| 2026-05-04 04:28 | 36.07362 | -114.96195 | 4559 ft | 187 kts | 262° |
| 2026-05-04 04:28 | 36.07361 | -114.97797 | 4332 ft | 186 kts | 262° |
| 2026-05-04 04:29 | 36.07360 | -114.99397 | 4092 ft | 185 kts | 262° |
| 2026-05-04 04:29 | 36.07359 | -115.00981 | 3874 ft | 183 kts | 264° |
| 2026-05-04 04:29 | 36.07361 | -115.02430 | 3617 ft | 155 kts | 268° |
| 2026-05-04 04:29 | 36.07362 | -115.03693 | 3418 ft | 142 kts | 268° |
| 2026-05-04 04:30 | 36.07362 | -115.04906 | 3287 ft | 141 kts | 266° |
| 2026-05-04 04:30 | 36.07361 | -115.06121 | 3144 ft | 142 kts | 266° |
| 2026-05-04 04:30 | 36.07359 | -115.07349 | 2968 ft | 144 kts | 265° |
| 2026-05-04 04:30 | 36.07357 | -115.08599 | 2705 ft | 148 kts | 267° |
| 2026-05-04 04:31 | 36.07363 | -115.09877 | 2607 ft | 149 kts | 269° |
| 2026-05-04 04:31 | 36.07367 | -115.11179 | 2411 ft | 152 kts | 266° |
| 2026-05-04 04:31 | 36.07365 | -115.12394 | 2184 ft | 137 kts | 268° |
| 2026-05-04 04:31 | 36.07366 | -115.13440 | 2128 ft | 106 kts | 271° |
| 2026-05-04 04:32 | 36.07364 | -115.14206 | 2133 ft | 74 kts | 270° |
| 2026-05-04 04:32 | 36.07378 | -115.14772 | 2132 ft | 59 kts | 280° |
| 2026-05-04 04:32 | 36.07505 | -115.15101 | 2129 ft | 24 kts | 313° |
| 2026-05-04 04:32 | 36.07523 | -115.15120 | 2130 ft | 0 kts | 322° |
| 2026-05-04 04:33 | 36.07538 | -115.15133 | 2131 ft | 5 kts | 326° |
| 2026-05-04 04:33 | 36.07602 | -115.15173 | 2133 ft | 13 kts | 336° |
| 2026-05-04 04:33 | 36.07697 | -115.15230 | 2133 ft | 18 kts | 334° |
| 2026-05-04 04:34 | 36.07799 | -115.15223 | 2134 ft | 9 kts | 54° |
| 2026-05-04 04:34 | 36.07804 | -115.15118 | 2132 ft | 15 kts | 94° |
| 2026-05-04 04:34 | 36.07797 | -115.14966 | 2133 ft | 20 kts | 95° |
| 2026-05-04 04:34 | 36.07780 | -115.14759 | 2129 ft | 29 kts | 96° |
| 2026-05-04 04:35 | 36.07762 | -115.14484 | 2128 ft | 35 kts | 94° |
| 2026-05-04 04:35 | 36.07755 | -115.14180 | 2127 ft | 34 kts | 90° |
| 2026-05-04 04:35 | 36.07754 | -115.13916 | 2132 ft | 27 kts | 90° |
| 2026-05-04 04:35 | 36.07752 | -115.13704 | 2132 ft | 22 kts | 88° |
| 2026-05-04 04:36 | 36.07754 | -115.13532 | 2133 ft | 18 kts | 89° |
| 2026-05-04 04:36 | 36.07754 | -115.13363 | 2134 ft | 22 kts | 90° |
| 2026-05-04 04:36 | 36.07754 | -115.13173 | 2131 ft | 21 kts | 90° |
| 2026-05-04 04:36 | 36.07755 | -115.13007 | 2130 ft | 17 kts | 90° |
| 2026-05-04 04:37 | 36.07844 | -115.12631 | 2121 ft | 16 kts | 351° |
| 2026-05-04 04:37 | 36.07988 | -115.12638 | 2115 ft | 20 kts | 359° |
| 2026-05-04 04:38 | 36.08097 | -115.12639 | 2106 ft | 15 kts | 359° |
| 2026-05-04 04:38 | 36.08183 | -115.12638 | 2098 ft | 8 kts | 6° |
| 2026-05-04 04:38 | 36.08216 | -115.12627 | 2095 ft | 5 kts | 30° |
| 2026-05-04 04:38 | 36.08232 | -115.12593 | 2094 ft | 3 kts | 73° |
| 2026-05-04 04:39 | 36.08234 | -115.12571 | 2094 ft | 3 kts | 82° |
| 2026-05-04 04:39 | 36.08235 | -115.12561 | 2094 ft | 0 kts | 85° |